Xin Dan Dong — BPBY — position and weather

sailwx.info

Track history (hours):
 
Tides and Currents Weather Stations Pressure Air Temp Water Temp Dewpoint Dewpoint Depression Visibility Wind Speed Wind Dir Waves Ship Positions

Xin Dan Dong

Last reported at 2016-Aug-26 01:08 UTC. Time now 2016-Aug-26 03:06 UTC.
Position N 38°59' E 117°47'.

Length 263 m; draft 8.3 m.

Type: Cargo ship. MMSI: 413153000.

Date/timePositionNaut miles runAvg speedWind from/ knotsBaromVisibWave heightAir tempDewpointWater temp
2016-Aug-26 01:08N 38°59' E 117°47'0 0.0
2016-Aug-26 00:32N 38°59' E 117°47'0 0.0
2016-Aug-25 23:26N 38°59' E 117°47'0 0.0
2016-Aug-25 22:26N 38°59' E 117°47'0 0.0
2016-Aug-25 21:32N 38°59' E 117°47'0 0.0
2016-Aug-25 20:26N 38°59' E 117°47'0 0.0
2016-Aug-25 19:32N 38°59' E 117°47'0 0.0
2016-Aug-25 18:32N 38°59' E 117°47'0 0.0
2016-Aug-25 17:26N 38°59' E 117°47'0 0.0
2016-Aug-25 16:31N 38°59' E 117°47'0 0.0
2016-Aug-25 15:25N 38°59' E 117°47'2 2.5
2016-Aug-25 14:33N 38°58' E 117°49'1211.9
2016-Aug-25 13:34N 38°56' E 118°04'116 7.8
2016-Aug-24 22:34N 38°39' E 120°32'1312.7
2016-Aug-24 21:34N 38°37' E 120°48'1010.3
2016-Aug-24 20:34N 38°33' E 121°00'1413.5
2016-Aug-24 19:32N 38°27' E 121°16'1313.1
2016-Aug-24 18:34N 38°20' E 121°30'1313.0
2016-Aug-24 17:33N 38°14' E 121°45'1313.0
2016-Aug-24 16:33N 38°07' E 121°59'1313.2
2016-Aug-24 15:34N 38°01' E 122°13'1413.7
2016-Aug-24 14:34N 37°54' E 122°28'1413.9
2016-Aug-24 13:34N 37°47' E 122°43'1413.6
2016-Aug-24 12:33N 37°40' E 122°58'1313.3
2016-Aug-24 11:33N 37°33' E 123°13'1212.5
2016-Aug-24 10:34N 37°21' E 123°14'1515.0
2016-Aug-24 09:33N 37°06' E 123°14'1514.8
2016-Aug-24 08:33N 36°51' E 123°14'34415.6
2016-Aug-23 10:31N 31°07' E 123°14'9112.8
2016-Aug-23 03:26N 29°42' E 122°38'1211.0
2016-Aug-23 02:18N 29°42' E 122°24'911.7
2016-Aug-23 01:32N 29°48' E 122°15'1212.1
2016-Aug-23 00:33N 29°55' E 122°05'8 0.7
2016-Aug-22 13:32N 29°56' E 121°56'1 0.1
2016-Aug-22 03:33N 29°57' E 121°57'1212.0
2016-Aug-22 02:33N 29°55' E 122°10'1312.4
2016-Aug-22 01:32N 29°45' E 122°20'1110.9
2016-Aug-22 00:33N 29°40' E 122°31'1713.3
2016-Aug-21 23:17N 29°23' E 122°32'32612.1
2016-Aug-20 20:24N 24°44' E 119°24'1113.4
2016-Aug-20 19:33N 24°36' E 119°15'1712.7
2016-Aug-20 18:14N 24°25' E 119°01'912.5
2016-Aug-20 17:33N 24°19' E 118°54'1312.8
2016-Aug-20 16:33N 24°11' E 118°44'1413.5
2016-Aug-20 15:32N 24°01' E 118°33'11613.9
2016-Aug-20 07:10N 22°52' E 116°51'14014.5
2016-Aug-19 21:33N 22°01' E 114°30'39 0.9
2016-Aug-18 03:33N 22°06' E 113°49'1211.7
2016-Aug-18 02:33N 22°18' E 113°48'1 0.1
2016-Aug-17 04:34N 22°19' E 113°48'154 5.9
2016-Aug-16 02:27N 22°41' E 116°33'  
Track history (hours):
 
Tides and Currents Weather Stations Pressure Air Temp Water Temp Dewpoint Dewpoint Depression Visibility Wind Speed Wind Dir Waves Ship Positions

Xin Dan Dong

Last reported at 2016-Aug-26 01:08 UTC. Time now 2016-Aug-26 03:06 UTC.
Position N 38°59' E 117°47'.

Length 263 m; draft 8.3 m.

Type: Cargo ship. MMSI: 413153000.

Date/timePositionNaut miles runAvg speedWind from/ knotsBaromVisibWave heightAir tempDewpointWater temp
2016-Aug-26 01:08N 38°59' E 117°47'0 0.0
2016-Aug-26 00:32N 38°59' E 117°47'0 0.0
2016-Aug-25 23:26N 38°59' E 117°47'0 0.0
2016-Aug-25 22:26N 38°59' E 117°47'0 0.0
2016-Aug-25 21:32N 38°59' E 117°47'0 0.0
2016-Aug-25 20:26N 38°59' E 117°47'0 0.0
2016-Aug-25 19:32N 38°59' E 117°47'0 0.0
2016-Aug-25 18:32N 38°59' E 117°47'0 0.0
2016-Aug-25 17:26N 38°59' E 117°47'0 0.0
2016-Aug-25 16:31N 38°59' E 117°47'0 0.0
2016-Aug-25 15:25N 38°59' E 117°47'2 2.5
2016-Aug-25 14:33N 38°58' E 117°49'1211.9
2016-Aug-25 13:34N 38°56' E 118°04'116 7.8
2016-Aug-24 22:34N 38°39' E 120°32'1312.7
2016-Aug-24 21:34N 38°37' E 120°48'1010.3
2016-Aug-24 20:34N 38°33' E 121°00'1413.5
2016-Aug-24 19:32N 38°27' E 121°16'1313.1
2016-Aug-24 18:34N 38°20' E 121°30'1313.0
2016-Aug-24 17:33N 38°14' E 121°45'1313.0
2016-Aug-24 16:33N 38°07' E 121°59'1313.2
2016-Aug-24 15:34N 38°01' E 122°13'1413.7
2016-Aug-24 14:34N 37°54' E 122°28'1413.9
2016-Aug-24 13:34N 37°47' E 122°43'1413.6
2016-Aug-24 12:33N 37°40' E 122°58'1313.3
2016-Aug-24 11:33N 37°33' E 123°13'1212.5
2016-Aug-24 10:34N 37°21' E 123°14'1515.0
2016-Aug-24 09:33N 37°06' E 123°14'1514.8
2016-Aug-24 08:33N 36°51' E 123°14'34415.6
2016-Aug-23 10:31N 31°07' E 123°14'9112.8
2016-Aug-23 03:26N 29°42' E 122°38'1211.0
2016-Aug-23 02:18N 29°42' E 122°24'911.7
2016-Aug-23 01:32N 29°48' E 122°15'1212.1
2016-Aug-23 00:33N 29°55' E 122°05'8 0.7
2016-Aug-22 13:32N 29°56' E 121°56'1 0.1
2016-Aug-22 03:33N 29°57' E 121°57'1212.0
2016-Aug-22 02:33N 29°55' E 122°10'1312.4
2016-Aug-22 01:32N 29°45' E 122°20'1110.9
2016-Aug-22 00:33N 29°40' E 122°31'1713.3
2016-Aug-21 23:17N 29°23' E 122°32'32612.1
2016-Aug-20 20:24N 24°44' E 119°24'1113.4
2016-Aug-20 19:33N 24°36' E 119°15'1712.7
2016-Aug-20 18:14N 24°25' E 119°01'912.5
2016-Aug-20 17:33N 24°19' E 118°54'1312.8
2016-Aug-20 16:33N 24°11' E 118°44'1413.5
2016-Aug-20 15:32N 24°01' E 118°33'11613.9
2016-Aug-20 07:10N 22°52' E 116°51'14014.5
2016-Aug-19 21:33N 22°01' E 114°30'39 0.9
2016-Aug-18 03:33N 22°06' E 113°49'1211.7
2016-Aug-18 02:33N 22°18' E 113°48'1 0.1
2016-Aug-17 04:34N 22°19' E 113°48'154 5.9
2016-Aug-16 02:27N 22°41' E 116°33'  

Dump ship's entire track history